METAR AND TAF INFORMATION
METAR FOR LEDA
ADDS - METARS form results

(0015 UTC 24 January 2019)
Data provider http://aviationweather.gov/metar/data/
 
METAR text: LEDA 240000Z AUTO 31006KT 270V340 9999 NCD 04/01 Q1001
Conditions at: LEDA (LLEIDA-ALGUAIRE , ES) observed 0000 UTC 24 January 2019
Temperature: 4.0°C (39°F)
Dewpoint: 1.0°C (34°F) [RH = 81%]
Pressure (altimeter): 29.56 inches Hg (1001.0 mb)
Winds: from the NW (310 degrees) at 7 MPH (6 knots; 3.1 m/s)
Visibility: 6 or more miles (10+ km)
Ceiling: at least 12,000 feet AGL
Clouds: sky clear below 12,000 feet AGL
Weather: no significant weather observed at this time

METAR text: LEDA 232330Z AUTO 34008KT 9999 NCD 05/02 Q1001
Conditions at: LEDA (LLEIDA-ALGUAIRE , ES) observed 2330 UTC 23 January 2019
Temperature: 5.0°C (41°F)
Dewpoint: 2.0°C (36°F) [RH = 81%]
Pressure (altimeter): 29.56 inches Hg (1001.0 mb)
Winds: from the NNW (340 degrees) at 9 MPH (8 knots; 4.1 m/s)
Visibility: 6 or more miles (10+ km)
Ceiling: at least 12,000 feet AGL
Clouds: sky clear below 12,000 feet AGL
Weather: no significant weather observed at this time

AIRPORT MAP

RUNWAY INFORMATION

AIRPORT FREQUENCIES

AIRPORT NEAR NAVIGATION AIDS